Time;durP1;ratioP1;P1;durP2;ratioP2;P2;SDS_P1;SDS_P2;PMS_P1;PMS_P2;Temp;Humidity;BMP_temperature;BMP_pressure;BME280_temperature;BME280_humidity;BME280_pressure;Samples;Min_cycle;Max_cycle;Signal;HPM_P1;HPM_P2
2021/07/17 00:02:19;;;;;;;1.90;1.37;;;26.80;72.10;;;;;;5016065;28;20452;-28
2021/07/17 00:04:52;;;;;;;1.73;1.63;;;26.80;70.30;;;;;;5019439;28;20460;-27
2021/07/17 00:07:24;;;;;;;1.60;1.50;;;26.70;72.10;;;;;;5018599;28;20464;-27
2021/07/17 00:09:55;;;;;;;1.80;1.70;;;26.60;73.00;;;;;;5014557;28;20535;-28
2021/07/17 00:12:26;;;;;;;2.03;1.80;;;26.40;71.40;;;;;;5015370;28;20452;-27
2021/07/17 00:14:57;;;;;;;1.83;1.73;;;26.30;72.30;;;;;;5014149;28;20479;-27
2021/07/17 00:17:28;;;;;;;2.73;1.70;;;26.30;71.90;;;;;;5024135;28;20505;-26
2021/07/17 00:20:01;;;;;;;2.50;1.63;;;26.20;72.30;;;;;;5006702;28;20971;-26
2021/07/17 00:22:32;;;;;;;2.17;1.70;;;26.00;72.30;;;;;;5014021;28;20455;-26
2021/07/17 00:25:03;;;;;;;2.23;1.63;;;25.90;73.20;;;;;;5019688;28;20517;-26
2021/07/17 00:27:34;;;;;;;2.13;1.80;;;26.00;74.10;;;;;;5014322;28;20443;-26
2021/07/17 00:30:06;;;;;;;2.30;2.10;;;26.00;72.60;;;;;;5015771;28;20490;-25
2021/07/17 00:32:38;;;;;;;2.20;1.60;;;25.90;73.30;;;;;;5015415;28;20937;-26
2021/07/17 00:35:11;;;;;;;1.80;1.70;;;25.80;72.90;;;;;;5022572;28;20454;-26
2021/07/17 00:37:42;;;;;;;2.13;1.73;;;25.60;74.00;;;;;;5008340;28;20482;-26
2021/07/17 00:40:19;;;;;;;2.13;1.67;;;25.60;74.40;;;;;;5015819;28;20557;-27
2021/07/17 00:42:52;;;;;;;2.63;1.80;;;25.60;74.50;;;;;;5012786;28;20457;-26
2021/07/17 00:45:23;;;;;;;2.50;2.30;;;25.60;75.80;;;;;;5007848;28;20444;-26
2021/07/17 00:47:54;;;;;;;1.77;1.67;;;25.60;74.90;;;;;;5010245;28;20500;-26
2021/07/17 00:50:27;;;;;;;1.90;1.70;;;25.40;75.00;;;;;;5010674;28;20479;-26
2021/07/17 00:52:59;;;;;;;2.27;1.80;;;25.30;77.10;;;;;;5012208;28;20502;-26
2021/07/17 00:55:30;;;;;;;2.00;1.90;;;25.40;76.70;;;;;;5023355;28;20446;-27
2021/07/17 00:58:03;;;;;;;3.63;1.80;;;25.30;77.30;;;;;;5008474;28;20473;-26
2021/07/17 01:00:34;;;;;;;2.13;2.03;;;25.10;77.10;;;;;;5014601;28;20501;-26
2021/07/17 01:03:09;;;;;;;2.73;2.47;;;25.20;76.20;;;;;;5011489;28;20517;-26
2021/07/17 01:05:41;;;;;;;2.47;1.83;;;25.10;76.90;;;;;;5022162;28;20450;-25
2021/07/17 01:08:12;;;;;;;3.00;1.90;;;25.10;77.50;;;;;;5018183;28;20514;-26
2021/07/17 01:10:43;;;;;;;2.00;1.90;;;25.10;77.60;;;;;;5013719;28;20447;-25
2021/07/17 01:13:14;;;;;;;3.03;2.50;;;25.10;77.80;;;;;;5003996;28;20474;-26
2021/07/17 01:15:45;;;;;;;1.87;1.70;;;25.00;77.30;;;;;;5007637;28;20490;-26
2021/07/17 01:18:17;;;;;;;2.87;2.10;;;24.90;77.70;;;;;;5003700;28;20531;-25
2021/07/17 01:20:52;;;;;;;2.70;2.20;;;24.90;79.30;;;;;;5003244;28;20475;-25
2021/07/17 01:23:25;;;;;;;4.17;3.87;;;25.00;78.70;;;;;;5014469;28;20491;-26
2021/07/17 01:25:56;;;;;;;2.30;1.83;;;24.90;77.70;;;;;;5007517;28;20938;-25
2021/07/17 01:28:27;;;;;;;2.43;2.00;;;24.80;78.40;;;;;;5003725;28;20436;-26
2021/07/17 01:30:58;;;;;;;2.90;1.93;;;24.80;79.10;;;;;;5021627;28;20478;-26
2021/07/17 01:33:29;;;;;;;3.13;2.60;;;24.70;79.60;;;;;;5023382;28;20572;-25
2021/07/17 01:36:00;;;;;;;3.50;3.20;;;24.60;78.70;;;;;;5015269;28;20454;-25
2021/07/17 01:38:33;;;;;;;4.47;4.10;;;24.60;80.00;;;;;;5003739;28;20502;-26
2021/07/17 01:41:04;;;;;;;2.93;2.17;;;24.70;79.30;;;;;;5009891;28;20510;-26
2021/07/17 01:43:35;;;;;;;2.70;2.50;;;24.60;80.70;;;;;;5003340;28;20513;-26
2021/07/17 01:46:06;;;;;;;2.53;2.33;;;24.40;81.00;;;;;;5009145;28;20481;-25
2021/07/17 01:48:37;;;;;;;2.13;2.03;;;24.30;82.30;;;;;;5012649;28;20451;-26
2021/07/17 01:51:08;;;;;;;1.90;1.80;;;24.20;81.70;;;;;;5017210;28;20461;-26
2021/07/17 01:53:40;;;;;;;1.80;1.70;;;24.20;82.30;;;;;;5020954;28;20446;-27
2021/07/17 01:56:11;;;;;;;2.03;1.90;;;24.20;82.70;;;;;;5017775;28;20476;-27
2021/07/17 01:58:43;;;;;;;2.90;2.60;;;24.00;83.50;;;;;;5021808;28;20434;-26
2021/07/17 02:01:13;;;;;;;1.90;1.80;;;24.00;83.40;;;;;;5015722;28;20452;-26
2021/07/17 02:03:46;;;;;;;2.00;1.90;;;24.00;83.80;;;;;;5022539;28;20450;-26
2021/07/17 02:06:24;;;;;;;1.97;1.87;;;23.90;83.90;;;;;;5014586;28;20807;-25
2021/07/17 02:08:58;;;;;;;1.97;1.87;;;24.00;84.40;;;;;;5014061;28;20446;-27
2021/07/17 02:11:29;;;;;;;3.10;2.80;;;23.80;83.90;;;;;;5013914;28;20458;-25
2021/07/17 02:14:00;;;;;;;2.40;2.20;;;23.70;84.70;;;;;;5026527;28;20482;-24
2021/07/17 02:16:31;;;;;;;6.13;4.83;;;23.60;84.70;;;;;;5025037;28;20552;-26
2021/07/17 02:19:12;;;;;;;7.43;4.77;;;23.60;85.40;;;;;;5017255;28;20545;-26
2021/07/17 02:21:43;;;;;;;3.43;3.17;;;23.50;86.70;;;;;;5022764;28;20473;-25
2021/07/17 02:24:16;;;;;;;2.83;2.20;;;23.50;86.90;;;;;;5023310;28;20433;-25
2021/07/17 02:26:48;;;;;;;2.67;1.83;;;23.50;88.00;;;;;;5023022;28;20456;-26
2021/07/17 02:29:19;;;;;;;2.00;1.40;;;23.40;87.80;;;;;;5011311;28;20506;-25
2021/07/17 02:31:50;;;;;;;1.60;1.50;;;23.30;88.00;;;;;;5021969;28;20922;-26
2021/07/17 02:34:21;;;;;;;1.63;1.53;;;23.20;88.50;;;;;;5021763;28;20965;-26
2021/07/17 02:36:51;;;;;;;1.60;1.50;;;23.20;88.20;;;;;;5014838;28;20438;-26
2021/07/17 02:39:25;;;;;;;1.93;1.83;;;23.20;88.50;;;;;;5013623;28;20416;-26
2021/07/17 02:41:56;;;;;;;2.63;1.97;;;23.10;89.10;;;;;;5017759;28;20474;-26
2021/07/17 02:44:28;;;;;;;1.40;1.40;;;22.90;90.00;;;;;;5018188;28;20434;-26
2021/07/17 02:46:59;;;;;;;1.90;1.80;;;22.90;90.50;;;;;;5016851;28;20495;-26
2021/07/17 02:49:30;;;;;;;1.20;1.10;;;22.90;90.20;;;;;;5025512;28;20489;-26
2021/07/17 02:52:01;;;;;;;1.87;1.33;;;22.90;90.50;;;;;;5022353;28;20505;-26
2021/07/17 02:54:33;;;;;;;1.60;1.50;;;22.90;91.00;;;;;;5021438;28;20425;-25
2021/07/17 02:57:13;;;;;;;1.90;1.33;;;22.70;91.00;;;;;;5025228;28;20536;-26
2021/07/17 02:59:46;;;;;;;1.63;1.53;;;22.60;91.30;;;;;;5023309;28;20441;-25
2021/07/17 03:02:17;;;;;;;1.60;1.50;;;22.60;91.60;;;;;;5023523;28;20448;-26
2021/07/17 03:04:48;;;;;;;1.43;1.33;;;22.50;91.70;;;;;;5014936;28;20425;-26
2021/07/17 03:07:19;;;;;;;1.93;1.83;;;22.40;92.00;;;;;;5010961;28;20478;-26
2021/07/17 03:09:52;;;;;;;1.73;1.63;;;22.40;92.00;;;;;;5008253;28;20482;-26
2021/07/17 03:12:23;;;;;;;3.20;1.57;;;22.30;92.30;;;;;;5005809;28;20483;-27
2021/07/17 03:14:54;;;;;;;2.13;1.40;;;22.20;92.40;;;;;;5006524;28;20479;-26
2021/07/17 03:17:25;;;;;;;2.80;2.60;;;22.20;92.80;;;;;;5015880;28;20508;-26
2021/07/17 03:19:56;;;;;;;2.20;2.00;;;22.20;92.90;;;;;;5014808;28;20452;-26
2021/07/17 03:22:27;;;;;;;1.50;1.40;;;22.10;93.10;;;;;;5016910;28;20630;-26
2021/07/17 03:24:59;;;;;;;1.30;1.20;;;22.00;93.20;;;;;;5015893;28;20466;-25
2021/07/17 03:27:31;;;;;;;1.27;1.17;;;21.90;93.30;;;;;;5019505;28;20465;-26
2021/07/17 03:30:01;;;;;;;1.20;1.10;;;21.80;93.30;;;;;;5018191;28;20417;-25
2021/07/17 03:32:32;;;;;;;1.27;1.17;;;21.80;93.30;;;;;;5014390;28;20429;-25
2021/07/17 03:35:04;;;;;;;1.30;1.20;;;21.80;93.20;;;;;;5016326;28;20455;-24
2021/07/17 03:37:35;;;;;;;1.10;1.00;;;21.70;93.30;;;;;;5015438;28;20421;-25
2021/07/17 03:40:09;;;;;;;1.07;0.97;;;21.60;93.50;;;;;;5010854;28;20621;-25
2021/07/17 03:42:40;;;;;;;2.00;1.57;;;21.60;93.60;;;;;;5017879;28;20438;-26
2021/07/17 03:45:12;;;;;;;1.30;1.20;;;21.50;93.90;;;;;;5018741;28;20442;-26
2021/07/17 03:47:43;;;;;;;1.40;1.30;;;21.40;94.20;;;;;;5022264;28;20667;-25
2021/07/17 03:50:14;;;;;;;1.43;1.33;;;21.40;94.60;;;;;;5036008;28;20450;-25
2021/07/17 03:52:45;;;;;;;1.53;1.20;;;21.30;95.00;;;;;;5023604;28;20457;-25
2021/07/17 03:55:18;;;;;;;1.20;1.10;;;21.30;95.20;;;;;;5023352;28;20447;-26
2021/07/17 03:57:49;;;;;;;1.60;1.50;;;21.20;95.80;;;;;;5010258;28;20422;-25
2021/07/17 04:00:20;;;;;;;1.37;1.27;;;21.10;96.10;;;;;;5022987;28;20477;-25
2021/07/17 04:02:51;;;;;;;1.20;1.10;;;21.00;96.60;;;;;;5024108;28;20465;-25
2021/07/17 04:05:23;;;;;;;1.30;1.20;;;21.00;96.90;;;;;;5023709;28;20469;-25
2021/07/17 04:07:54;;;;;;;1.00;0.90;;;20.90;97.30;;;;;;5022838;28;20493;-26
2021/07/17 04:10:26;;;;;;;1.30;1.03;;;20.90;97.40;;;;;;5007554;28;20870;-26
2021/07/17 04:12:57;;;;;;;1.40;1.30;;;20.80;97.80;;;;;;5019945;28;20477;-26
2021/07/17 04:15:29;;;;;;;1.37;1.27;;;20.70;98.00;;;;;;5011573;28;20413;-25
2021/07/17 04:18:00;;;;;;;1.03;1.00;;;20.70;98.20;;;;;;5016131;28;20473;-25
2021/07/17 04:20:31;;;;;;;1.23;1.13;;;20.60;98.40;;;;;;5005618;28;20515;-25
2021/07/17 04:23:02;;;;;;;1.00;0.90;;;20.50;98.40;;;;;;5019228;28;20517;-25
2021/07/17 04:25:35;;;;;;;1.00;0.93;;;20.50;98.30;;;;;;5013594;28;20481;-26
2021/07/17 04:28:06;;;;;;;0.80;0.80;;;20.40;98.60;;;;;;5016777;28;20475;-26
2021/07/17 04:30:37;;;;;;;1.17;1.00;;;20.30;98.70;;;;;;5023599;28;20437;-25
2021/07/17 04:33:08;;;;;;;1.23;1.13;;;20.20;98.80;;;;;;5019978;28;20927;-24
2021/07/17 04:35:41;;;;;;;1.30;1.10;;;20.20;98.80;;;;;;5014215;28;20438;-26
2021/07/17 04:38:12;;;;;;;1.30;1.20;;;20.10;98.80;;;;;;5018707;28;20485;-25
2021/07/17 04:40:45;;;;;;;1.70;1.37;;;20.10;98.80;;;;;;5019389;28;20540;-26
2021/07/17 04:43:16;;;;;;;1.80;1.20;;;20.00;98.70;;;;;;5011444;28;20446;-26
2021/07/17 04:45:48;;;;;;;1.90;1.20;;;20.00;98.90;;;;;;5016447;28;20429;-25
2021/07/17 04:48:19;;;;;;;2.30;1.10;;;19.90;99.10;;;;;;5016762;28;20521;-25
2021/07/17 04:50:50;;;;;;;1.23;1.13;;;19.90;99.30;;;;;;5018392;28;20455;-26
2021/07/17 04:53:21;;;;;;;1.23;1.10;;;19.90;99.30;;;;;;5016487;28;20826;-25
2021/07/17 04:55:54;;;;;;;1.73;1.10;;;19.80;99.50;;;;;;5011073;28;20482;-26
2021/07/17 04:58:25;;;;;;;1.20;1.10;;;19.70;99.60;;;;;;5015666;28;20438;-26
2021/07/17 05:00:56;;;;;;;1.27;0.93;;;19.70;99.70;;;;;;5003674;28;20522;-26
2021/07/17 05:03:27;;;;;;;1.00;1.00;;;19.60;99.70;;;;;;5011715;28;20439;-26
2021/07/17 05:05:58;;;;;;;1.20;1.10;;;19.60;99.90;;;;;;5013956;28;20446;-26
2021/07/17 05:08:29;;;;;;;1.13;1.03;;;19.50;99.90;;;;;;5018959;28;20460;-27
2021/07/17 05:11:01;;;;;;;0.87;0.87;;;19.50;99.90;;;;;;5007597;28;20453;-26
2021/07/17 05:13:36;;;;;;;1.20;0.90;;;19.40;99.90;;;;;;5022222;28;20420;-26
2021/07/17 05:16:07;;;;;;;1.13;1.00;;;19.40;99.90;;;;;;5008325;28;20454;-26
2021/07/17 05:18:38;;;;;;;1.23;1.10;;;19.30;99.90;;;;;;5003591;28;20479;-27
2021/07/17 05:21:09;;;;;;;1.20;1.00;;;19.30;99.90;;;;;;5003711;28;20490;-27
2021/07/17 05:23:40;;;;;;;1.03;1.03;;;19.30;99.90;;;;;;5003697;28;20451;-26
2021/07/17 05:26:12;;;;;;;0.90;0.90;;;19.20;99.90;;;;;;5012695;28;20505;-27
2021/07/17 05:28:43;;;;;;;1.10;1.00;;;19.10;99.90;;;;;;5022998;28;20485;-26
2021/07/17 05:31:14;;;;;;;0.97;0.97;;;19.10;99.90;;;;;;5022792;28;20898;-27
2021/07/17 05:33:45;;;;;;;0.77;0.77;;;19.00;99.90;;;;;;5007051;28;20447;-26
2021/07/17 05:36:17;;;;;;;1.17;1.00;;;19.00;99.90;;;;;;5008141;28;20459;-26
2021/07/17 05:38:48;;;;;;;1.20;1.10;;;19.00;99.90;;;;;;5010517;28;20446;-26
2021/07/17 05:41:21;;;;;;;1.67;1.10;;;18.90;99.90;;;;;;5007195;28;20513;-27
2021/07/17 05:43:52;;;;;;;1.13;1.00;;;18.90;99.90;;;;;;5022316;28;20525;-26
2021/07/17 05:46:23;;;;;;;1.27;1.10;;;18.80;99.90;;;;;;5007142;28;20973;-26
2021/07/17 05:48:54;;;;;;;2.03;0.90;;;18.80;99.90;;;;;;5002944;28;20486;-26
2021/07/17 05:51:25;;;;;;;1.27;1.17;;;18.80;99.90;;;;;;5002831;28;20434;-26
2021/07/17 05:53:57;;;;;;;1.03;1.00;;;18.80;99.90;;;;;;5007485;28;20496;-26
2021/07/17 05:56:29;;;;;;;0.80;0.80;;;18.70;99.90;;;;;;5022300;28;20437;-26
2021/07/17 05:59:00;;;;;;;1.30;1.20;;;18.60;99.90;;;;;;5012113;28;20446;-26
2021/07/17 06:01:32;;;;;;;1.73;0.90;;;18.50;99.90;;;;;;5022701;28;20849;-26
2021/07/17 06:04:08;;;;;;;1.40;1.30;;;18.50;99.90;;;;;;5003843;28;20741;-25
2021/07/17 06:06:39;;;;;;;0.97;0.97;;;18.50;99.90;;;;;;5017674;28;20442;-26
2021/07/17 06:09:10;;;;;;;1.20;1.10;;;18.50;99.90;;;;;;5015929;28;20530;-26
2021/07/17 06:11:42;;;;;;;1.20;1.00;;;18.50;99.90;;;;;;5012791;28;20458;-26
2021/07/17 06:14:13;;;;;;;2.20;1.07;;;18.50;99.90;;;;;;5003418;28;20466;-25
2021/07/17 06:16:44;;;;;;;1.00;0.90;;;18.40;99.90;;;;;;5003187;28;20541;-25
2021/07/17 06:19:15;;;;;;;3.80;1.40;;;18.40;99.90;;;;;;5005700;28;20451;-26
2021/07/17 06:21:46;;;;;;;2.10;1.40;;;18.40;99.90;;;;;;5002568;28;20455;-25
2021/07/17 06:24:17;;;;;;;2.10;1.40;;;18.40;99.90;;;;;;5013739;28;20473;-26
2021/07/17 06:26:50;;;;;;;1.10;1.10;;;18.30;99.90;;;;;;5022874;28;20428;-26
2021/07/17 06:29:21;;;;;;;1.40;1.10;;;18.30;99.90;;;;;;5018071;28;20491;-26
2021/07/17 06:31:52;;;;;;;1.20;1.10;;;18.20;99.90;;;;;;5009343;28;20454;-25
2021/07/17 06:34:25;;;;;;;1.10;1.00;;;18.20;99.90;;;;;;5021934;28;20554;-26
2021/07/17 06:36:56;;;;;;;1.10;1.10;;;18.10;99.90;;;;;;5021265;28;20474;-26
2021/07/17 06:39:27;;;;;;;5.10;1.33;;;18.10;99.90;;;;;;5015606;28;20474;-27
2021/07/17 06:42:00;;;;;;;1.23;1.13;;;18.00;99.90;;;;;;5009793;28;20454;-26
2021/07/17 06:44:32;;;;;;;1.30;1.20;;;18.00;99.90;;;;;;5004818;28;20566;-27
2021/07/17 06:47:03;;;;;;;2.53;1.33;;;17.90;99.90;;;;;;5013433;28;20462;-26
2021/07/17 06:49:34;;;;;;;1.10;1.00;;;17.80;99.90;;;;;;5022344;28;20464;-26
2021/07/17 06:52:05;;;;;;;1.60;1.20;;;17.80;99.90;;;;;;5003007;28;20543;-27
2021/07/17 06:54:36;;;;;;;2.80;1.50;;;17.80;99.90;;;;;;5012954;28;20519;-26
2021/07/17 06:57:09;;;;;;;2.30;1.70;;;17.70;99.90;;;;;;5016604;28;20595;-26
2021/07/17 06:59:40;;;;;;;1.40;1.30;;;17.80;99.90;;;;;;5015462;28;20453;-26
2021/07/17 07:02:11;;;;;;;1.37;1.27;;;17.70;99.90;;;;;;5018880;28;20548;-26
2021/07/17 07:04:42;;;;;;;1.40;1.20;;;17.70;99.90;;;;;;5015182;28;20486;-26
2021/07/17 07:07:13;;;;;;;1.50;1.40;;;17.60;99.90;;;;;;5005600;28;20451;-26
2021/07/17 07:09:44;;;;;;;1.53;1.43;;;17.60;99.90;;;;;;5019112;28;20464;-27
2021/07/17 07:12:17;;;;;;;3.13;1.67;;;17.60;99.90;;;;;;5006647;28;20512;-26
2021/07/17 07:14:48;;;;;;;3.80;1.50;;;17.50;99.90;;;;;;5012593;28;20496;-26
2021/07/17 07:17:19;;;;;;;1.13;1.10;;;17.60;99.90;;;;;;5008641;28;20459;-26
2021/07/17 07:19:50;;;;;;;1.30;1.20;;;17.60;99.90;;;;;;5016037;28;20592;-26
2021/07/17 07:22:21;;;;;;;1.30;1.20;;;17.50;99.90;;;;;;5010636;28;20466;-26
2021/07/17 07:24:52;;;;;;;1.20;1.10;;;17.40;99.90;;;;;;5019304;28;20481;-27
2021/07/17 07:27:25;;;;;;;1.10;1.00;;;17.40;99.90;;;;;;5025203;28;20446;-26
2021/07/17 07:29:55;;;;;;;1.20;1.10;;;17.40;99.90;;;;;;5019636;28;20490;-25
2021/07/17 07:32:27;;;;;;;1.40;1.30;;;17.30;99.90;;;;;;5005095;28;20459;-25
2021/07/17 07:34:58;;;;;;;1.47;1.37;;;17.40;99.90;;;;;;5012444;28;20907;-26
2021/07/17 07:37:29;;;;;;;1.50;1.40;;;17.40;99.90;;;;;;5010870;28;20450;-26
2021/07/17 07:40:00;;;;;;;1.40;1.30;;;17.40;99.90;;;;;;5018348;28;20478;-26
2021/07/17 07:42:35;;;;;;;1.13;1.07;;;17.30;99.90;;;;;;5018400;28;20461;-26
2021/07/17 07:45:07;;;;;;;1.60;1.50;;;17.20;99.90;;;;;;5008067;28;20487;-25
2021/07/17 07:47:38;;;;;;;1.20;1.10;;;17.20;99.90;;;;;;5023864;28;20454;-26
2021/07/17 07:50:11;;;;;;;1.30;1.20;;;17.20;99.90;;;;;;5015745;28;20529;-26
2021/07/17 07:52:42;;;;;;;1.43;1.33;;;17.20;99.90;;;;;;5006532;28;20455;-27
2021/07/17 07:55:18;;;;;;;1.57;1.20;;;17.20;99.90;;;;;;5014212;28;20464;-26
2021/07/17 07:57:51;;;;;;;1.40;1.30;;;17.20;99.90;;;;;;5005186;28;20451;-26
2021/07/17 08:00:22;;;;;;;1.30;1.20;;;17.20;99.90;;;;;;5008080;28;20455;-26
2021/07/17 08:02:55;;;;;;;3.63;1.50;;;17.00;99.90;;;;;;5005093;28;20463;-26
2021/07/17 08:05:27;;;;;;;1.37;1.27;;;17.00;99.90;;;;;;5006574;28;20455;-26
2021/07/17 08:07:58;;;;;;;1.43;1.20;;;17.00;99.90;;;;;;5023963;28;20443;-26
2021/07/17 08:10:29;;;;;;;1.30;1.20;;;17.00;99.90;;;;;;5012416;28;20491;-25
2021/07/17 08:13:02;;;;;;;2.43;1.57;;;17.00;99.90;;;;;;5004985;28;20466;-25
2021/07/17 08:15:33;;;;;;;2.33;1.40;;;17.00;99.90;;;;;;5004939;28;20432;-25
2021/07/17 08:18:04;;;;;;;2.63;1.17;;;16.90;99.90;;;;;;5012685;28;20856;-25
2021/07/17 08:20:35;;;;;;;1.33;1.23;;;16.90;99.90;;;;;;5008876;28;20451;-26
2021/07/17 08:23:06;;;;;;;1.70;1.60;;;16.80;99.90;;;;;;5005886;28;20475;-26
2021/07/17 08:25:38;;;;;;;1.90;1.50;;;16.70;99.90;;;;;;5012376;28;20451;-25
2021/07/17 08:28:11;;;;;;;1.50;1.37;;;16.80;99.90;;;;;;5009907;28;20925;-25
2021/07/17 08:30:42;;;;;;;1.47;1.10;;;16.70;99.90;;;;;;5010055;28;20578;-26
2021/07/17 08:33:13;;;;;;;1.50;1.40;;;16.70;99.90;;;;;;5004544;28;20474;-26
2021/07/17 08:35:44;;;;;;;1.70;1.60;;;16.70;99.90;;;;;;5016565;28;20462;-26
2021/07/17 08:38:15;;;;;;;2.63;1.63;;;16.70;99.90;;;;;;5006411;28;20440;-27
2021/07/17 08:41:09;;;;;;;1.70;1.50;;;16.70;99.90;;;;;;5016601;28;20457;-26
2021/07/17 08:43:42;;;;;;;2.27;1.90;;;16.60;99.90;;;;;;5004052;28;20459;-26
2021/07/17 08:46:14;;;;;;;1.70;1.60;;;16.60;99.90;;;;;;5012999;28;20454;-26
2021/07/17 08:48:45;;;;;;;1.83;1.73;;;16.60;99.90;;;;;;5021036;28;20508;-26
2021/07/17 08:51:16;;;;;;;1.83;1.70;;;16.50;99.90;;;;;;5020302;28;20529;-26
2021/07/17 08:53:48;;;;;;;1.80;1.70;;;16.50;99.90;;;;;;5015015;28;20512;-26
2021/07/17 08:56:19;;;;;;;1.57;1.40;;;16.40;99.90;;;;;;5015580;28;20510;-26
2021/07/17 08:58:52;;;;;;;1.57;1.47;;;16.40;99.90;;;;;;5020274;28;20462;-25
2021/07/17 09:01:23;;;;;;;1.80;1.67;;;16.40;99.90;;;;;;5013632;28;20922;-26
2021/07/17 09:03:55;;;;;;;1.40;1.30;;;16.30;99.90;;;;;;5023533;28;20454;-26
2021/07/17 09:06:25;;;;;;;1.60;1.50;;;16.30;99.90;;;;;;5022989;28;20489;-26
2021/07/17 09:08:56;;;;;;;1.87;1.77;;;16.30;99.90;;;;;;5006492;28;20446;-26
2021/07/17 09:11:40;;;;;;;1.90;1.70;;;16.20;99.90;;;;;;5006488;28;20483;-26
2021/07/17 09:14:36;;;;;;;2.10;1.33;;;16.20;99.90;;;;;;5005245;28;20447;-26
2021/07/17 09:17:07;;;;;;;1.80;1.70;;;16.20;99.90;;;;;;5022300;28;20458;-26
2021/07/17 09:19:54;;;;;;;1.90;1.40;;;16.20;99.90;;;;;;5012724;28;20463;-26
2021/07/17 09:22:36;;;;;;;1.60;1.50;;;16.20;99.90;;;;;;5003944;28;20473;-26
2021/07/17 09:25:12;;;;;;;2.40;1.77;;;16.30;99.90;;;;;;5010678;28;20478;-26
2021/07/17 09:27:43;;;;;;;2.30;2.00;;;16.30;99.90;;;;;;5022544;28;20824;-26
2021/07/17 09:30:36;;;;;;;2.00;1.77;;;16.40;99.90;;;;;;5013743;28;20474;-26
2021/07/17 09:33:07;;;;;;;1.80;1.63;;;16.50;99.90;;;;;;5018631;28;20462;-25
2021/07/17 09:35:41;;;;;;;1.43;1.33;;;16.50;99.90;;;;;;5009436;28;20473;-25
2021/07/17 09:38:12;;;;;;;1.87;1.77;;;16.60;99.90;;;;;;5014341;28;20513;-26
2021/07/17 09:40:46;;;;;;;1.80;1.70;;;16.70;99.90;;;;;;5022291;28;20513;-25
2021/07/17 09:43:33;;;;;;;1.47;1.37;;;16.70;99.90;;;;;;5021702;28;20488;-25
2021/07/17 09:46:18;;;;;;;1.60;1.50;;;16.80;99.90;;;;;;5016845;28;20464;-25
2021/07/17 09:48:52;;;;;;;1.67;1.57;;;16.80;99.90;;;;;;5009976;28;20940;-25
2021/07/17 09:51:25;;;;;;;1.80;1.70;;;16.80;99.90;;;;;;5018603;28;20485;-26
2021/07/17 09:53:57;;;;;;;1.73;1.63;;;16.90;99.90;;;;;;5012485;28;20539;-25
2021/07/17 09:56:30;;;;;;;2.20;2.00;;;16.90;99.90;;;;;;5013312;28;20462;-25
2021/07/17 09:59:02;;;;;;;2.93;1.60;;;17.00;99.90;;;;;;5003118;28;20514;-25
2021/07/17 10:01:36;;;;;;;2.03;1.77;;;17.00;99.90;;;;;;5013817;28;20492;-25
2021/07/17 10:04:10;;;;;;;1.60;1.50;;;17.10;99.90;;;;;;5022684;28;20953;-25
2021/07/17 10:06:44;;;;;;;2.80;1.43;;;17.10;99.90;;;;;;5020789;28;20487;-26
2021/07/17 10:09:30;;;;;;;1.97;1.70;;;17.10;99.90;;;;;;5012824;28;20477;-26
2021/07/17 10:12:03;;;;;;;1.90;1.80;;;17.10;99.90;;;;;;5017282;28;20513;-26
2021/07/17 10:14:37;;;;;;;1.80;1.70;;;17.20;99.90;;;;;;5004688;28;20483;-26
2021/07/17 10:17:12;;;;;;;2.00;1.80;;;17.30;99.90;;;;;;5016695;28;20482;-26
2021/07/17 10:19:44;;;;;;;1.60;1.50;;;17.30;99.90;;;;;;5003219;28;20458;-26
2021/07/17 10:22:15;;;;;;;1.90;1.70;;;17.30;99.90;;;;;;5002583;28;20463;-26
2021/07/17 10:24:46;;;;;;;1.60;1.50;;;17.20;99.90;;;;;;5004197;28;20463;-28
2021/07/17 10:27:18;;;;;;;1.60;1.33;;;17.20;99.90;;;;;;5009225;28;20540;-25
2021/07/17 10:29:50;;;;;;;2.00;1.27;;;17.20;99.90;;;;;;5016721;28;20519;-26
2021/07/17 10:32:23;;;;;;;2.17;1.90;;;17.20;99.90;;;;;;5017945;28;20486;-26
2021/07/17 10:34:54;;;;;;;1.30;1.20;;;17.20;99.90;;;;;;5021333;28;20465;-25
2021/07/17 10:37:29;;;;;;;2.00;1.77;;;17.20;99.90;;;;;;5006272;28;20497;-26
2021/07/17 10:40:06;;;;;;;1.80;1.50;;;17.20;99.90;;;;;;5016107;28;20500;-29
2021/07/17 10:42:40;;;;;;;2.40;1.77;;;17.20;99.90;;;;;;5014725;28;20459;-25
2021/07/17 10:45:12;;;;;;;1.60;1.40;;;17.20;99.90;;;;;;5017581;28;20465;-26
2021/07/17 10:47:45;;;;;;;1.37;1.27;;;17.20;99.90;;;;;;5009181;28;20490;-25
2021/07/17 10:50:16;;;;;;;1.80;1.37;;;17.30;99.90;;;;;;5011574;28;20525;-25
2021/07/17 10:52:47;;;;;;;1.07;1.00;;;17.30;99.90;;;;;;5018016;28;20992;-25
2021/07/17 10:55:33;;;;;;;3.03;1.20;;;17.20;99.90;;;;;;5015238;28;20438;-26
2021/07/17 10:58:36;;;;;;;1.40;1.20;;;17.20;99.90;;;;;;5017522;28;20452;-25
2021/07/17 11:01:07;;;;;;;1.80;1.70;;;17.10;99.90;;;;;;5025048;28;20413;-26
2021/07/17 11:03:51;;;;;;;1.50;1.40;;;17.20;99.90;;;;;;5026132;28;20477;-26
2021/07/17 11:06:27;;;;;;;2.30;1.70;;;17.20;99.90;;;;;;5006375;28;20451;-26
2021/07/17 11:08:58;;;;;;;1.50;1.40;;;17.30;99.90;;;;;;5007703;28;20510;-26
2021/07/17 11:11:37;;;;;;;1.57;1.40;;;17.30;99.90;;;;;;5006167;28;20479;-26
2021/07/17 11:14:31;;;;;;;1.77;1.67;;;17.30;99.90;;;;;;5020529;28;20530;-26
2021/07/17 11:17:02;;;;;;;1.70;1.60;;;17.40;99.90;;;;;;4998147;28;20483;-26
2021/07/17 11:19:34;;;;;;;1.37;1.23;;;17.30;99.90;;;;;;5020544;28;20545;-25
2021/07/17 11:22:12;;;;;;;1.70;1.50;;;17.20;99.90;;;;;;5006070;28;20454;-25
2021/07/17 11:24:44;;;;;;;1.40;1.30;;;17.30;99.90;;;;;;5006660;28;21021;-26
2021/07/17 11:27:16;;;;;;;1.23;1.13;;;17.30;99.90;;;;;;5012889;28;20471;-25
2021/07/17 11:29:48;;;;;;;1.20;1.10;;;17.40;99.90;;;;;;5015303;28;20446;-26
2021/07/17 11:32:19;;;;;;;1.57;1.47;;;17.30;99.90;;;;;;5013400;28;20497;-26
2021/07/17 11:34:54;;;;;;;1.10;1.00;;;17.30;99.90;;;;;;5005808;28;20801;-26
2021/07/17 11:37:29;;;;;;;1.57;1.47;;;17.20;99.90;;;;;;5009948;28;20902;-26
2021/07/17 11:40:20;;;;;;;1.77;1.60;;;17.20;99.90;;;;;;5006040;28;20817;-26
2021/07/17 11:42:51;;;;;;;2.03;1.83;;;17.20;99.90;;;;;;5006057;28;20474;-26
2021/07/17 11:45:22;;;;;;;1.50;1.40;;;17.20;99.90;;;;;;5017807;28;20488;-26
2021/07/17 11:47:53;;;;;;;1.60;1.50;;;17.20;99.90;;;;;;5016528;28;20486;-26
2021/07/17 11:50:26;;;;;;;1.00;1.00;;;17.10;99.90;;;;;;5006364;28;20824;-26
2021/07/17 11:52:56;;;;;;;1.20;1.10;;;17.10;99.90;;;;;;5010018;28;20622;-26
2021/07/17 11:55:27;;;;;;;1.30;1.20;;;17.00;99.90;;;;;;5008153;28;20451;-26
2021/07/17 11:57:59;;;;;;;1.73;1.63;;;17.10;99.90;;;;;;5024446;28;20440;-26
2021/07/17 12:00:29;;;;;;;1.73;1.23;;;17.00;99.90;;;;;;5021051;28;20534;-26
2021/07/17 12:03:01;;;;;;;1.67;1.57;;;17.00;99.90;;;;;;5018908;28;20462;-25
2021/07/17 12:05:37;;;;;;;1.17;1.10;;;16.90;99.90;;;;;;5019939;28;20445;-26
2021/07/17 12:08:08;;;;;;;0.97;0.97;;;17.00;99.90;;;;;;5020107;28;20604;-25
2021/07/17 12:10:40;;;;;;;2.13;1.30;;;16.90;99.90;;;;;;5008108;28;20530;-26
2021/07/17 12:13:11;;;;;;;1.60;1.33;;;16.90;99.90;;;;;;5005739;28;20562;-26
2021/07/17 12:15:42;;;;;;;1.30;1.20;;;16.90;99.90;;;;;;5004855;28;20457;-26
2021/07/17 12:18:15;;;;;;;1.43;1.33;;;16.80;99.90;;;;;;5006141;28;20566;-26
2021/07/17 12:20:50;;;;;;;1.30;1.20;;;16.80;99.90;;;;;;5012680;28;20464;-26
2021/07/17 12:23:24;;;;;;;2.00;1.80;;;16.80;99.90;;;;;;5009719;28;20507;-25
2021/07/17 12:25:58;;;;;;;2.50;1.30;;;16.80;99.90;;;;;;5011016;28;20827;-25
2021/07/17 12:28:34;;;;;;;1.60;1.50;;;16.80;99.90;;;;;;5023518;28;20566;-26
2021/07/17 12:31:10;;;;;;;1.40;1.23;;;16.90;99.90;;;;;;5005261;28;21016;-25
2021/07/17 12:33:42;;;;;;;1.37;1.27;;;16.90;99.90;;;;;;5014793;28;20510;-26
2021/07/17 12:36:17;;;;;;;1.80;1.53;;;16.90;99.90;;;;;;5016588;28;20458;-26
2021/07/17 12:38:50;;;;;;;1.60;1.50;;;16.90;99.90;;;;;;5023643;28;20445;-26
2021/07/17 12:41:24;;;;;;;1.60;1.50;;;16.80;99.90;;;;;;5020706;28;20478;-25
2021/07/17 12:43:55;;;;;;;1.60;1.50;;;16.80;99.90;;;;;;5015724;28;20580;-25
2021/07/17 12:46:28;;;;;;;1.40;1.30;;;16.90;99.90;;;;;;5021232;28;20462;-25
2021/07/17 12:49:00;;;;;;;1.60;1.50;;;16.90;99.90;;;;;;5017361;28;20485;-25
2021/07/17 12:51:34;;;;;;;1.83;1.20;;;16.90;99.90;;;;;;5004638;28;20486;-26
2021/07/17 12:54:06;;;;;;;2.30;1.43;;;16.80;99.90;;;;;;5007471;28;20523;-25
2021/07/17 12:56:43;;;;;;;2.37;1.30;;;16.80;99.90;;;;;;5008016;28;20447;-25
2021/07/17 12:59:16;;;;;;;2.03;1.90;;;16.90;99.90;;;;;;5022268;28;20472;-26
2021/07/17 13:01:49;;;;;;;1.30;1.20;;;16.80;99.90;;;;;;5009174;28;20463;-25
2021/07/17 13:04:22;;;;;;;1.50;1.40;;;16.80;99.90;;;;;;5021737;28;20522;-25
2021/07/17 13:07:03;;;;;;;1.77;1.63;;;16.90;99.90;;;;;;5017409;28;20477;-25
2021/07/17 13:09:36;;;;;;;1.83;1.30;;;16.80;99.90;;;;;;5004401;28;20451;-26
2021/07/17 13:12:09;;;;;;;4.83;1.53;;;16.80;99.90;;;;;;5005615;28;20522;-25
2021/07/17 13:14:42;;;;;;;1.47;1.37;;;17.00;99.90;;;;;;5019135;28;20452;-26
2021/07/17 13:17:14;;;;;;;1.30;1.10;;;17.00;99.90;;;;;;5013688;28;20483;-26